createdAt,value
2023-01-25T00:04:56.952Z,2.09
2023-01-25T00:09:58.534Z,1.97
2023-01-25T00:15:00.160Z,2.16
2023-01-25T00:20:02.190Z,2.13
2023-01-25T00:25:04.121Z,2.04
2023-01-25T00:30:06.434Z,2.23
2023-01-25T00:35:11.997Z,2.27
2023-01-25T00:40:13.828Z,2.35
2023-01-25T00:45:15.561Z,2.00
2023-01-25T00:50:17.216Z,2.28
2023-01-25T00:55:18.890Z,2.45
2023-01-25T01:00:23.319Z,2.50
2023-01-25T01:05:24.938Z,2.49
2023-01-25T01:10:26.604Z,2.37
2023-01-25T01:15:28.195Z,2.33
2023-01-25T01:20:30.052Z,2.35
2023-01-25T01:25:32.679Z,2.28
2023-01-25T01:30:34.387Z,2.35
2023-01-25T01:35:36.206Z,2.14
2023-01-25T01:40:37.859Z,2.20
2023-01-25T01:45:52.092Z,2.22
2023-01-25T01:51:15.013Z,1.87
2023-01-25T01:56:23.769Z,1.90
2023-01-25T02:01:27.052Z,2.20
2023-01-25T02:06:39.661Z,2.01
2023-01-25T02:11:42.159Z,1.70
2023-01-25T02:16:44.131Z,1.62
2023-01-25T02:21:47.655Z,1.99
2023-01-25T02:26:49.546Z,1.98
2023-01-25T02:31:59.845Z,1.86
2023-01-25T02:37:03.008Z,1.77
2023-01-25T02:42:04.781Z,1.83
2023-01-25T02:47:07.164Z,1.79
2023-01-25T02:52:08.845Z,1.82
2023-01-25T02:57:10.930Z,1.78
2023-01-25T03:02:18.258Z,1.73
2023-01-25T03:07:20.777Z,1.57
2023-01-25T03:12:22.502Z,1.57
2023-01-25T03:17:25.039Z,1.78
2023-01-25T03:22:26.985Z,1.60
2023-01-25T03:27:30.552Z,1.63
2023-01-25T03:32:38.319Z,1.34
2023-01-25T03:37:44.084Z,1.29
2023-01-25T03:42:46.051Z,1.15
2023-01-25T03:47:48.051Z,1.29
2023-01-25T03:52:57.401Z,1.46
2023-01-25T03:57:59.387Z,1.19
2023-01-25T04:03:01.048Z,1.54
2023-01-25T04:08:03.722Z,1.54
2023-01-25T04:13:12.426Z,1.40
2023-01-25T04:18:15.124Z,1.02
2023-01-25T04:23:16.760Z,0.86
2023-01-25T04:28:19.955Z,1.05
2023-01-25T04:33:22.472Z,0.69
2023-01-25T04:38:24.360Z,0.85
2023-01-25T04:43:26.427Z,0.99
2023-01-25T04:48:33.313Z,1.03
2023-01-25T04:53:38.805Z,0.69
2023-01-25T04:58:41.853Z,0.74
2023-01-25T05:03:43.759Z,1.05
2023-01-25T05:09:09.800Z,0.97
2023-01-25T05:14:11.780Z,0.74
2023-01-25T05:19:13.529Z,0.73
2023-01-25T05:24:34.677Z,0.46
2023-01-25T05:29:41.657Z,0.80
2023-01-25T05:34:44.916Z,1.12
2023-01-25T05:39:47.387Z,1.31
2023-01-25T05:44:49.067Z,0.88
2023-01-25T05:49:51.728Z,1.14
2023-01-25T05:55:06.138Z,0.50
2023-01-25T06:00:09.823Z,0.57
2023-01-25T06:05:14.915Z,0.80
2023-01-25T06:10:17.087Z,0.96
2023-01-25T06:15:20.419Z,0.85
2023-01-25T06:20:22.583Z,0.70
2023-01-25T06:25:39.885Z,0.64
2023-01-25T06:30:41.810Z,0.70
2023-01-25T06:35:43.580Z,0.58
2023-01-25T06:40:45.140Z,0.45
2023-01-25T06:45:46.733Z,0.56
2023-01-25T06:50:56.855Z,0.39
2023-01-25T06:56:05.388Z,0.50
2023-01-25T07:01:15.407Z,0.53
2023-01-25T07:06:17.583Z,0.43
2023-01-25T07:11:19.377Z,0.40
2023-01-25T07:16:21.762Z,0.37
2023-01-25T07:21:24.247Z,0.38
2023-01-25T07:26:26.238Z,0.44
2023-01-25T07:31:30.753Z,0.52
2023-01-25T07:36:32.686Z,0.49
2023-01-25T07:41:34.260Z,0.56
2023-01-25T07:46:36.459Z,0.30
2023-01-25T07:51:38.068Z,0.67
2023-01-25T07:56:40.688Z,0.71
2023-01-25T08:01:42.490Z,0.68
2023-01-25T08:06:46.298Z,0.75
2023-01-25T08:11:49.466Z,0.65
2023-01-25T08:16:51.133Z,0.51
2023-01-25T08:21:52.874Z,0.48
2023-01-25T08:26:54.644Z,0.64
2023-01-25T08:31:56.375Z,0.53
2023-01-25T08:36:58.192Z,0.45
2023-01-25T08:42:00.192Z,0.53
2023-01-25T08:47:01.929Z,0.28
2023-01-25T08:52:03.755Z,0.52
2023-01-25T08:57:06.311Z,0.43
2023-01-25T09:02:11.899Z,0.46
2023-01-25T09:07:13.555Z,0.34
2023-01-25T09:12:15.186Z,0.24
2023-01-25T09:17:17.280Z,0.41
2023-01-25T09:22:18.882Z,0.35
2023-01-25T09:27:20.809Z,0.53
2023-01-25T09:32:23.856Z,0.32
2023-01-25T09:37:28.782Z,0.29
2023-01-25T09:42:33.370Z,0.40
2023-01-25T09:47:53.839Z,0.19
2023-01-25T09:53:17.037Z,0.48
2023-01-25T09:58:26.452Z,0.39
2023-01-25T10:03:35.770Z,0.38
2023-01-25T10:08:53.341Z,0.25
2023-01-25T10:13:57.080Z,0.38
2023-01-25T10:19:23.167Z,0.24
2023-01-25T10:24:48.861Z,0.36
2023-01-25T10:29:56.016Z,0.41
2023-01-25T10:35:01.241Z,0.44
2023-01-25T10:40:14.309Z,0.64
2023-01-25T10:45:17.100Z,0.52
2023-01-25T10:50:46.608Z,0.57
2023-01-25T10:56:25.372Z,0.65
2023-01-25T11:01:27.519Z,0.72
2023-01-25T11:06:38.260Z,0.71
2023-01-25T11:11:41.414Z,0.71
2023-01-25T11:16:47.218Z,0.85
2023-01-25T11:21:53.432Z,0.71
2023-01-25T11:27:16.779Z,1.02
2023-01-25T11:32:26.848Z,1.01
2023-01-25T11:38:08.723Z,0.87
2023-01-25T11:43:43.649Z,1.05
2023-01-25T11:49:04.102Z,0.90
2023-01-25T11:54:25.351Z,0.78
2023-01-25T11:59:59.199Z,0.84
2023-01-25T12:05:29.543Z,0.99
2023-01-25T12:10:33.865Z,1.10
2023-01-25T12:16:08.974Z,0.96
2023-01-25T12:21:35.406Z,1.03
2023-01-25T12:26:56.832Z,1.04
2023-01-25T12:32:21.669Z,1.04
2023-01-25T12:37:35.516Z,1.09
2023-01-25T12:42:44.949Z,1.20
2023-01-25T12:47:53.628Z,1.17
2023-01-25T12:53:05.688Z,1.12
2023-01-25T12:58:15.267Z,1.23
2023-01-25T13:03:41.009Z,1.32
2023-01-25T13:08:49.191Z,1.12
2023-01-25T13:13:51.360Z,1.22
2023-01-25T13:18:53.201Z,1.11
2023-01-25T13:24:12.728Z,1.35
2023-01-25T13:29:36.463Z,1.22
2023-01-25T13:34:42.534Z,1.18
2023-01-25T13:39:47.755Z,1.24
2023-01-25T13:44:53.485Z,1.11
2023-01-25T13:50:18.829Z,1.24
2023-01-25T13:55:20.660Z,1.31
2023-01-25T14:00:22.636Z,1.34
2023-01-25T14:05:25.897Z,1.20
2023-01-25T14:10:28.456Z,1.20
2023-01-25T14:15:32.364Z,1.28
2023-01-25T14:20:34.168Z,1.42
2023-01-25T14:25:40.433Z,1.49
2023-01-25T14:30:43.031Z,1.37
2023-01-25T14:35:55.722Z,1.32
2023-01-25T14:41:19.623Z,1.38
2023-01-25T14:46:37.231Z,1.15
2023-01-25T14:51:49.101Z,1.09
2023-01-25T14:56:53.722Z,1.10
2023-01-25T15:01:59.188Z,0.92
2023-01-25T15:07:09.084Z,1.04
2023-01-25T15:12:28.028Z,1.09
2023-01-25T15:17:40.655Z,0.96
2023-01-25T15:22:42.355Z,1.05
2023-01-25T15:27:43.924Z,1.01
2023-01-25T15:32:46.288Z,1.26
2023-01-25T15:37:49.483Z,1.27
2023-01-25T15:42:51.178Z,1.08
2023-01-25T15:47:52.846Z,1.19
2023-01-25T15:52:54.532Z,1.16
2023-01-25T15:57:57.396Z,1.36
2023-01-25T16:02:59.011Z,1.12
2023-01-25T16:08:00.653Z,0.89
2023-01-25T16:13:02.519Z,0.89
2023-01-25T16:18:04.779Z,1.14
2023-01-25T16:23:06.454Z,1.03
2023-01-25T16:28:17.307Z,0.84
2023-01-25T16:33:24.311Z,0.81
2023-01-25T16:38:26.029Z,1.00
2023-01-25T16:43:37.988Z,0.71
2023-01-25T16:48:44.997Z,0.88
2023-01-25T16:53:48.506Z,0.60
2023-01-25T16:58:51.359Z,0.93
2023-01-25T17:03:55.263Z,0.84
2023-01-25T17:09:02.207Z,0.86
2023-01-25T17:14:06.578Z,0.69
2023-01-25T17:19:12.577Z,0.70
2023-01-25T17:24:17.226Z,0.73
2023-01-25T17:29:18.998Z,0.78
2023-01-25T17:34:21.900Z,0.58
2023-01-25T17:39:25.691Z,0.75
2023-01-25T17:44:27.327Z,0.64
2023-01-25T17:49:30.621Z,0.72
2023-01-25T17:54:32.351Z,0.56
2023-01-25T17:59:33.983Z,0.68
2023-01-25T18:04:35.849Z,0.73
2023-01-25T18:09:38.495Z,0.86
2023-01-25T18:14:40.195Z,0.91
2023-01-25T18:19:44.271Z,0.82
2023-01-25T18:24:46.514Z,0.61
2023-01-25T18:29:48.067Z,0.63
2023-01-25T18:34:49.920Z,0.70
2023-01-25T18:39:54.061Z,0.69
2023-01-25T18:44:55.642Z,0.55
2023-01-25T18:49:57.398Z,0.67
2023-01-25T18:54:59.109Z,0.76
2023-01-25T19:00:00.863Z,0.56
2023-01-25T19:05:02.526Z,0.66
2023-01-25T19:10:04.369Z,0.70
2023-01-25T19:15:06.772Z,0.60
2023-01-25T19:20:09.126Z,0.62
2023-01-25T19:25:11.205Z,0.73
2023-01-25T19:30:13.336Z,0.77
2023-01-25T19:35:15.097Z,0.67
2023-01-25T19:40:18.893Z,0.62
2023-01-25T19:45:20.427Z,0.71
2023-01-25T19:50:22.117Z,0.72
2023-01-25T19:55:23.843Z,0.80
2023-01-25T20:00:25.459Z,0.70
2023-01-25T20:05:27.101Z,0.87
2023-01-25T20:10:30.214Z,0.87
2023-01-25T20:15:32.551Z,0.98
2023-01-25T20:20:34.372Z,0.95
2023-01-25T20:25:36.028Z,1.07
2023-01-25T20:30:37.683Z,1.06
2023-01-25T20:35:39.357Z,0.97
2023-01-25T20:40:40.983Z,0.92
2023-01-25T20:45:42.646Z,0.96
2023-01-25T20:50:44.391Z,0.84
2023-01-25T20:55:56.232Z,0.80
2023-01-25T21:00:58.073Z,0.80
2023-01-25T21:06:00.564Z,0.73
2023-01-25T21:11:02.420Z,0.77
2023-01-25T21:16:11.558Z,0.81
2023-01-25T21:21:15.535Z,0.86
2023-01-25T21:26:28.455Z,1.00
2023-01-25T21:31:38.424Z,1.09
2023-01-25T21:36:40.437Z,0.86
2023-01-25T21:41:42.086Z,0.80
2023-01-25T21:46:49.259Z,0.87
2023-01-25T21:51:55.974Z,0.93
2023-01-25T21:56:59.266Z,1.02
2023-01-25T22:02:00.798Z,1.04
2023-01-25T22:07:03.295Z,0.88
2023-01-25T22:12:04.980Z,0.83
2023-01-25T22:17:06.614Z,0.72
2023-01-25T22:22:08.190Z,0.65
2023-01-25T22:27:31.979Z,0.80
2023-01-25T22:32:33.761Z,0.80
2023-01-25T22:37:37.957Z,0.77
2023-01-25T22:42:39.544Z,0.78
2023-01-25T22:47:43.041Z,0.85
2023-01-25T22:52:44.578Z,0.69
2023-01-25T22:57:46.184Z,0.78
2023-01-25T23:02:47.744Z,0.99
2023-01-25T23:07:49.358Z,1.04
2023-01-25T23:12:53.437Z,0.86
2023-01-25T23:18:13.480Z,0.98
2023-01-25T23:23:16.888Z,0.79
2023-01-25T23:28:18.548Z,1.07
2023-01-25T23:33:20.203Z,1.13
2023-01-25T23:38:21.807Z,1.04
2023-01-25T23:43:23.361Z,1.04
2023-01-25T23:48:25.074Z,0.96
2023-01-25T23:53:27.605Z,1.00
2023-01-25T23:58:29.744Z,0.99
